Time;durP1;ratioP1;P1;durP2;ratioP2;P2;SDS_P1;SDS_P2;PMS_P1;PMS_P2;Temp;Humidity;BMP_temperature;BMP_pressure;BME280_temperature;BME280_humidity;BME280_pressure;Samples;Min_cycle;Max_cycle;Signal;HPM_P1;HPM_P2
2021/12/24 00:00:31;;;;;;;1.00;1.00;;;13.00;40.30;;;;;;5129065;27;47159;-17
2021/12/24 00:02:57;;;;;;;2.37;1.17;;;13.00;40.20;;;;;;5129492;27;47930;-17
2021/12/24 00:05:24;;;;;;;1.50;1.17;;;13.00;40.30;;;;;;5128897;27;47424;-17
2021/12/24 00:07:51;;;;;;;3.33;1.47;;;13.00;40.30;;;;;;5129330;27;46909;-17
2021/12/24 00:10:18;;;;;;;2.67;1.37;;;13.00;40.40;;;;;;5129303;27;47124;-17
2021/12/24 00:12:48;;;;;;;1.97;1.30;;;13.00;40.40;;;;;;5128800;27;47952;-16
2021/12/24 00:15:37;;;;;;;1.53;1.30;;;13.00;40.40;;;;;;5128667;27;46826;-16
2021/12/24 00:18:12;;;;;;;1.53;1.33;;;13.00;40.40;;;;;;5129314;27;47034;-16
2021/12/24 00:37:08;;;;;;;2.43;1.10;;;13.00;40.60;;;;;;5125887;27;46928;-16
2021/12/24 00:39:41;;;;;;;1.17;1.13;;;12.90;40.60;;;;;;5128518;27;46879;-16
2021/12/24 00:42:08;;;;;;;2.03;1.20;;;12.90;40.70;;;;;;5128851;27;46890;-16
2021/12/24 00:44:34;;;;;;;1.13;1.00;;;12.90;40.70;;;;;;5128020;27;47066;-17
2021/12/24 00:47:02;;;;;;;2.43;1.30;;;12.90;40.70;;;;;;5128264;27;47241;-17
2021/12/24 00:49:30;;;;;;;1.90;1.20;;;12.90;40.70;;;;;;5128385;27;46819;-16
2021/12/24 00:52:07;;;;;;;1.80;1.10;;;12.90;40.80;;;;;;5128553;27;47319;-18
2021/12/24 00:57:31;;;;;;;1.57;1.30;;;12.90;40.80;;;;;;5064412;28;46999;-16
2021/12/24 00:59:58;;;;;;;1.17;1.10;;;12.90;40.80;;;;;;5111838;27;46941;-17
2021/12/24 01:02:24;;;;;;;1.10;1.10;;;12.90;40.90;;;;;;5128535;27;46869;-16
2021/12/24 01:04:52;;;;;;;1.47;0.97;;;12.90;40.80;;;;;;5128134;27;48006;-17
2021/12/24 01:07:19;;;;;;;1.00;1.00;;;12.90;40.90;;;;;;5128232;27;46973;-16
2021/12/24 01:09:46;;;;;;;1.87;1.23;;;12.90;40.90;;;;;;5127901;27;46926;-16
2021/12/24 01:12:13;;;;;;;2.37;1.67;;;12.90;40.90;;;;;;5128144;27;46855;-17
2021/12/24 01:14:39;;;;;;;1.20;1.10;;;12.90;40.90;;;;;;5127529;27;48879;-17
2021/12/24 01:17:14;;;;;;;1.33;1.10;;;12.90;41.00;;;;;;5128082;27;46794;-18
2021/12/24 01:19:43;;;;;;;1.48;1.10;;;12.90;41.10;;;;;;5127887;27;47103;-16
2021/12/24 01:25:02;;;;;;;3.40;1.30;;;12.80;41.10;;;;;;5126682;27;46885;-17
2021/12/24 01:27:51;;;;;;;2.77;1.20;;;12.90;41.10;;;;;;5128012;27;46859;-16
2021/12/24 01:38:37;;;;;;;1.30;1.20;;;12.80;41.30;;;;;;5124885;27;46791;-17
2021/12/24 01:41:08;;;;;;;1.77;1.47;;;12.80;41.30;;;;;;5127801;27;46859;-16
2021/12/24 01:43:33;;;;;;;1.07;1.07;;;12.80;41.40;;;;;;5127970;27;47026;-16
2021/12/24 01:46:01;;;;;;;1.00;0.90;;;12.80;41.40;;;;;;5127654;27;48006;-16
2021/12/24 01:48:28;;;;;;;1.97;1.40;;;12.80;41.40;;;;;;5127709;27;46900;-15
2021/12/24 01:50:55;;;;;;;1.30;1.20;;;12.80;41.40;;;;;;5127472;27;46948;-16
2021/12/24 01:53:24;;;;;;;1.43;1.07;;;12.80;41.40;;;;;;5127798;27;47104;-17
2021/12/24 01:55:52;;;;;;;1.30;1.20;;;12.80;41.40;;;;;;5127477;27;48215;-16
2021/12/24 01:58:19;;;;;;;1.57;1.10;;;12.80;41.40;;;;;;5127138;27;47157;-16
2021/12/24 02:00:47;;;;;;;2.50;1.30;;;12.80;41.50;;;;;;5127512;27;46897;-18
2021/12/24 02:03:13;;;;;;;1.43;1.20;;;12.80;41.50;;;;;;5127520;27;47244;-16
2021/12/24 02:05:40;;;;;;;1.37;1.27;;;12.80;41.60;;;;;;5126601;27;47837;-16
2021/12/24 02:08:08;;;;;;;1.30;1.20;;;12.80;41.60;;;;;;5127323;27;46827;-16
2021/12/24 02:10:34;;;;;;;1.43;1.10;;;12.80;41.60;;;;;;5127092;27;46905;-17
2021/12/24 02:13:06;;;;;;;1.60;1.20;;;12.80;41.50;;;;;;5127460;27;47303;-16
2021/12/24 02:15:44;;;;;;;1.30;1.10;;;12.80;41.60;;;;;;5126814;27;49099;-16
2021/12/24 02:18:41;;;;;;;1.10;1.00;;;12.80;41.60;;;;;;5127225;27;47426;-17
2021/12/24 02:29:27;;;;;;;1.30;1.10;;;12.80;41.80;;;;;;5125061;27;46841;-17
2021/12/24 02:31:53;;;;;;;1.00;1.00;;;12.80;41.80;;;;;;5127117;27;47124;-17
2021/12/24 02:34:20;;;;;;;1.30;1.20;;;12.80;41.80;;;;;;5126784;27;46902;-16
2021/12/24 02:36:48;;;;;;;1.20;1.10;;;12.80;41.90;;;;;;5126601;27;47070;-18
2021/12/24 02:39:17;;;;;;;1.17;1.07;;;12.80;42.00;;;;;;5126707;27;46738;-16
2021/12/24 02:41:43;;;;;;;1.20;1.10;;;12.80;41.90;;;;;;5126898;27;46909;-16
2021/12/24 02:44:10;;;;;;;2.00;1.20;;;12.80;42.10;;;;;;5126537;27;46941;-18
2021/12/24 02:46:43;;;;;;;1.20;1.10;;;12.80;42.00;;;;;;5126420;27;47157;-18
2021/12/24 02:49:14;;;;;;;1.40;1.30;;;12.80;42.00;;;;;;5126322;27;47399;-17
2021/12/24 02:54:26;;;;;;;1.33;1.23;;;12.80;42.10;;;;;;5124833;27;46955;-17
2021/12/24 02:56:57;;;;;;;1.20;1.10;;;12.80;42.10;;;;;;5126572;27;47973;-17
2021/12/24 02:59:26;;;;;;;1.10;1.00;;;12.80;42.20;;;;;;5126433;27;46867;-17
2021/12/24 03:01:54;;;;;;;1.00;1.00;;;12.80;42.10;;;;;;5126464;27;46738;-16
2021/12/24 03:04:20;;;;;;;1.30;1.20;;;12.80;42.10;;;;;;5126500;27;46943;-16
2021/12/24 03:06:48;;;;;;;1.33;1.23;;;12.80;42.20;;;;;;5126401;27;46989;-18
2021/12/24 03:09:16;;;;;;;1.30;1.20;;;12.80;42.20;;;;;;5126066;27;46821;-16
2021/12/24 03:11:44;;;;;;;1.53;1.00;;;12.80;42.10;;;;;;5126539;27;46784;-16
2021/12/24 03:14:15;;;;;;;1.20;1.10;;;12.80;42.20;;;;;;5126330;27;47153;-17
2021/12/24 03:16:44;;;;;;;1.57;1.10;;;12.80;42.30;;;;;;5126102;27;47826;-17
2021/12/24 03:19:12;;;;;;;1.77;1.20;;;12.80;42.20;;;;;;5128642;27;47038;-18
2021/12/24 03:21:48;;;;;;;1.53;1.07;;;12.80;42.20;;;;;;5130085;27;46935;-16
2021/12/24 03:27:01;;;;;;;1.30;1.20;;;12.80;42.10;;;;;;5127007;27;47477;-16
2021/12/24 03:29:27;;;;;;;2.40;1.17;;;12.80;42.20;;;;;;5129802;27;47058;-18
2021/12/24 03:31:54;;;;;;;1.60;1.13;;;12.80;42.20;;;;;;5129629;27;46923;-16
2021/12/24 03:34:21;;;;;;;1.30;1.20;;;12.80;42.20;;;;;;5130214;27;47291;-17
2021/12/24 03:36:48;;;;;;;1.30;1.20;;;12.80;42.30;;;;;;5129674;27;48899;-16
2021/12/24 03:39:15;;;;;;;1.20;1.10;;;12.80;42.40;;;;;;5129443;27;46888;-16
2021/12/24 03:41:42;;;;;;;2.17;1.47;;;12.80;42.40;;;;;;5129571;27;46821;-16
2021/12/24 03:44:12;;;;;;;1.37;1.00;;;12.80;42.40;;;;;;5129510;27;47199;-17
2021/12/24 03:46:48;;;;;;;1.07;1.07;;;12.80;42.50;;;;;;5129634;27;47860;-17
2021/12/24 03:49:20;;;;;;;1.10;1.00;;;12.80;42.40;;;;;;5129347;27;46974;-17
2021/12/24 03:51:53;;;;;;;1.07;1.07;;;12.80;42.60;;;;;;5129463;27;46896;-17
2021/12/24 03:57:05;;;;;;;1.10;1.10;;;12.80;42.70;;;;;;5126595;27;46976;-16
2021/12/24 03:59:33;;;;;;;1.30;1.20;;;12.80;42.60;;;;;;5129339;27;46993;-17
2021/12/24 04:02:02;;;;;;;1.77;1.20;;;12.80;42.70;;;;;;5129375;27;46870;-17
2021/12/24 04:04:28;;;;;;;1.30;1.20;;;12.80;42.70;;;;;;5129224;27;47276;-16
2021/12/24 04:06:55;;;;;;;1.63;1.17;;;12.80;42.60;;;;;;5128917;27;48844;-16
2021/12/24 04:09:24;;;;;;;1.20;1.10;;;12.80;42.70;;;;;;5129080;27;46931;-16
2021/12/24 04:11:51;;;;;;;1.30;0.93;;;12.80;42.60;;;;;;5129076;27;46895;-17
2021/12/24 04:14:18;;;;;;;1.20;1.10;;;12.80;42.70;;;;;;5128941;27;47221;-16
2021/12/24 04:16:46;;;;;;;1.27;1.07;;;12.80;42.70;;;;;;5129397;27;47067;-16
2021/12/24 04:19:26;;;;;;;1.50;1.20;;;12.80;42.70;;;;;;5129029;27;47227;-16
2021/12/24 04:24:52;;;;;;;1.10;1.00;;;12.80;42.70;;;;;;5127383;27;46729;-16
2021/12/24 04:27:19;;;;;;;0.87;0.87;;;12.80;42.80;;;;;;5128996;27;47792;-18
2021/12/24 04:29:46;;;;;;;1.50;1.40;;;12.80;42.70;;;;;;5128069;27;46972;-18
2021/12/24 04:32:17;;;;;;;0.90;0.90;;;12.80;42.70;;;;;;5128665;27;46891;-17
2021/12/24 04:34:47;;;;;;;1.47;0.90;;;12.80;42.70;;;;;;5128992;27;46905;-16
2021/12/24 04:51:14;;;;;;;1.27;1.17;;;12.80;42.80;;;;;;5125641;27;47054;-17
2021/12/24 05:02:09;;;;;;;1.50;1.10;;;12.80;42.90;;;;;;5125839;27;46977;-17
2021/12/24 05:04:47;;;;;;;0.73;0.73;;;12.80;43.00;;;;;;5128307;27;46914;-16
2021/12/24 05:07:31;;;;;;;1.20;1.10;;;12.80;43.10;;;;;;5128473;27;46834;-16
2021/12/24 05:09:58;;;;;;;0.80;0.80;;;12.80;43.10;;;;;;5128058;27;47070;-17
2021/12/24 05:12:25;;;;;;;0.90;0.90;;;12.80;43.20;;;;;;5128201;27;46796;-17
2021/12/24 05:14:51;;;;;;;2.17;1.20;;;12.80;43.10;;;;;;5127893;27;46834;-17
2021/12/24 05:17:26;;;;;;;0.97;0.83;;;12.80;43.20;;;;;;5128437;27;47384;-18
2021/12/24 05:22:37;;;;;;;1.00;0.90;;;12.80;43.20;;;;;;5125179;27;46857;-16
2021/12/24 05:25:05;;;;;;;1.33;0.93;;;12.80;43.20;;;;;;5128004;27;46897;-16
2021/12/24 05:27:31;;;;;;;1.30;0.93;;;12.80;43.20;;;;;;5128346;27;46930;-16
2021/12/24 05:29:58;;;;;;;1.00;1.00;;;12.80;43.20;;;;;;5127633;27;49021;-16
2021/12/24 05:32:25;;;;;;;1.33;1.03;;;12.80;43.20;;;;;;5127988;27;47418;-16
2021/12/24 05:34:52;;;;;;;1.10;1.00;;;12.80;43.10;;;;;;5127837;27;46812;-16
2021/12/24 05:37:24;;;;;;;1.73;1.10;;;12.80;43.00;;;;;;5127980;27;46838;-16
2021/12/24 05:39:51;;;;;;;1.00;0.90;;;12.80;43.10;;;;;;5127162;27;48841;-16
2021/12/24 05:42:17;;;;;;;1.20;1.10;;;12.80;43.00;;;;;;5126969;27;46775;-17
2021/12/24 05:44:46;;;;;;;1.50;0.93;;;12.80;43.10;;;;;;5127156;27;47166;-16
2021/12/24 05:47:12;;;;;;;1.00;0.83;;;12.80;43.10;;;;;;5127561;27;47131;-18
2021/12/24 05:49:40;;;;;;;1.30;0.97;;;12.80;43.20;;;;;;5127262;27;47874;-18
2021/12/24 05:52:07;;;;;;;1.00;1.00;;;12.80;43.20;;;;;;5127278;27;46890;-16
2021/12/24 05:54:35;;;;;;;0.93;0.93;;;12.80;43.10;;;;;;5127130;27;47026;-17
2021/12/24 05:57:02;;;;;;;0.90;0.90;;;12.80;43.30;;;;;;5127819;27;46933;-17
2021/12/24 05:59:29;;;;;;;0.87;0.87;;;12.80;43.30;;;;;;5127237;27;47951;-18
2021/12/24 06:01:55;;;;;;;1.30;1.20;;;12.80;43.20;;;;;;5127602;27;46979;-16
2021/12/24 06:04:22;;;;;;;1.00;1.00;;;12.80;43.10;;;;;;5127289;27;47022;-15
2021/12/24 06:06:49;;;;;;;1.27;1.17;;;12.80;43.20;;;;;;5127423;27;46834;-17
2021/12/24 06:09:15;;;;;;;1.10;1.00;;;12.80;43.30;;;;;;5127124;27;47815;-16
2021/12/24 06:11:44;;;;;;;0.83;0.83;;;12.80;43.30;;;;;;5127288;27;47777;-16
2021/12/24 06:14:12;;;;;;;1.23;1.13;;;12.80;43.90;;;;;;5127004;27;46820;-17
2021/12/24 06:16:46;;;;;;;0.80;0.80;;;12.80;43.40;;;;;;5127177;27;46960;-17
2021/12/24 06:19:13;;;;;;;1.00;0.90;;;12.80;43.30;;;;;;5126632;27;46976;-16
2021/12/24 06:21:40;;;;;;;1.00;1.00;;;12.80;43.30;;;;;;5127084;27;47444;-18
2021/12/24 06:24:07;;;;;;;0.80;0.80;;;12.80;43.40;;;;;;5126939;27;46986;-17
2021/12/24 06:26:34;;;;;;;1.00;0.73;;;12.80;43.40;;;;;;5127399;27;46943;-17
2021/12/24 06:29:02;;;;;;;1.10;0.80;;;12.80;43.40;;;;;;5126528;27;47885;-16
2021/12/24 06:31:28;;;;;;;0.90;0.90;;;12.80;43.40;;;;;;5127073;27;47636;-18
2021/12/24 06:33:55;;;;;;;1.10;1.00;;;12.80;43.60;;;;;;5126811;27;46994;-17
2021/12/24 06:36:22;;;;;;;1.07;0.97;;;12.80;43.60;;;;;;5127022;27;46990;-16
2021/12/24 06:38:51;;;;;;;0.80;0.80;;;12.80;43.60;;;;;;5126279;27;48882;-16
2021/12/24 06:41:18;;;;;;;1.53;0.90;;;12.80;43.60;;;;;;5126502;27;47224;-16
2021/12/24 06:43:46;;;;;;;0.83;0.83;;;12.80;43.60;;;;;;5126622;27;47001;-18
2021/12/24 06:46:14;;;;;;;0.80;0.80;;;12.80;43.60;;;;;;5127117;27;46887;-17
2021/12/24 06:48:41;;;;;;;1.07;0.90;;;12.80;43.60;;;;;;5126595;27;48795;-16
2021/12/24 06:51:09;;;;;;;1.20;1.10;;;12.80;43.60;;;;;;5126540;27;47761;-18
2021/12/24 06:53:35;;;;;;;1.10;1.00;;;12.80;43.70;;;;;;5133369;27;47153;-16
2021/12/24 06:56:02;;;;;;;1.33;0.83;;;12.80;43.60;;;;;;5134004;27;47240;-16
2021/12/24 06:58:29;;;;;;;3.33;0.83;;;12.80;43.70;;;;;;5133432;27;47979;-16
2021/12/24 07:00:55;;;;;;;0.80;0.80;;;12.70;43.70;;;;;;5133391;27;47467;-17
2021/12/24 07:03:23;;;;;;;0.90;0.90;;;12.80;43.70;;;;;;5133566;27;46817;-18
2021/12/24 07:05:50;;;;;;;0.87;0.80;;;12.80;43.70;;;;;;5133556;27;46927;-16
2021/12/24 07:08:17;;;;;;;0.80;0.80;;;12.70;43.70;;;;;;5133067;27;49077;-16
2021/12/24 07:10:46;;;;;;;1.10;1.00;;;12.80;43.70;;;;;;5133122;27;46915;-16
2021/12/24 07:13:13;;;;;;;1.40;0.97;;;12.80;43.70;;;;;;5133341;27;46824;-16
2021/12/24 07:15:39;;;;;;;1.60;0.80;;;12.70;43.70;;;;;;5133299;27;46839;-16
2021/12/24 07:18:06;;;;;;;0.87;0.87;;;12.70;43.70;;;;;;5133224;27;48132;-18
2021/12/24 07:20:34;;;;;;;1.07;0.90;;;12.70;43.80;;;;;;5132875;27;46912;-18
2021/12/24 07:23:01;;;;;;;0.87;0.87;;;12.70;43.70;;;;;;5133507;27;46996;-18
2021/12/24 07:25:28;;;;;;;0.77;0.77;;;12.70;43.70;;;;;;5132975;27;47073;-17
2021/12/24 07:27:54;;;;;;;0.80;0.70;;;12.70;43.70;;;;;;5133136;27;48234;-18
2021/12/24 07:30:22;;;;;;;0.80;0.80;;;12.70;43.80;;;;;;5132965;27;46871;-17
2021/12/24 07:32:49;;;;;;;0.90;0.90;;;12.70;43.80;;;;;;5133220;27;46963;-16
2021/12/24 07:35:16;;;;;;;0.90;0.90;;;12.70;43.70;;;;;;5132988;27;46924;-16
2021/12/24 07:37:44;;;;;;;1.00;0.90;;;12.70;43.80;;;;;;5132806;27;47843;-18
2021/12/24 07:40:12;;;;;;;4.10;0.93;;;12.70;43.90;;;;;;5132661;27;47152;-17
2021/12/24 07:42:39;;;;;;;6.00;1.13;;;12.70;44.60;;;;;;5132196;27;46878;-17
2021/12/24 07:45:07;;;;;;;6.33;1.33;;;12.80;46.10;;;;;;5132550;27;46832;-19
2021/12/24 07:47:38;;;;;;;7.93;1.30;;;12.80;46.90;;;;;;5132794;27;46898;-19
2021/12/24 07:50:17;;;;;;;4.70;1.50;;;12.90;46.80;;;;;;5132293;27;46938;-16
2021/12/24 07:52:45;;;;;;;7.20;1.30;;;13.00;47.00;;;;;;5132675;27;46887;-17
2021/12/24 07:55:12;;;;;;;6.30;1.10;;;13.00;47.90;;;;;;5132548;27;46890;-17
2021/12/24 07:57:38;;;;;;;1.57;0.93;;;13.10;47.20;;;;;;5132720;27;47848;-16
2021/12/24 08:00:06;;;;;;;0.87;0.87;;;13.10;45.00;;;;;;5132188;27;46917;-16
2021/12/24 08:02:33;;;;;;;1.37;1.03;;;13.10;45.30;;;;;;5132588;27;46949;-16
2021/12/24 08:05:00;;;;;;;1.10;1.00;;;13.10;44.90;;;;;;5128423;27;47206;-17
2021/12/24 08:07:27;;;;;;;1.77;0.90;;;13.10;45.80;;;;;;5129231;27;47950;-18
2021/12/24 08:09:55;;;;;;;1.20;0.90;;;13.10;45.50;;;;;;5129009;27;47098;-16
2021/12/24 08:12:22;;;;;;;1.37;0.90;;;13.20;45.20;;;;;;5129292;27;46886;-16
2021/12/24 08:14:49;;;;;;;1.20;0.97;;;13.20;45.20;;;;;;5128917;27;46889;-17
2021/12/24 08:17:16;;;;;;;1.10;0.93;;;13.20;45.20;;;;;;5128776;27;47957;-15
2021/12/24 08:19:42;;;;;;;3.37;1.10;;;13.10;45.80;;;;;;5128660;27;47118;-17
2021/12/24 08:22:10;;;;;;;1.10;1.00;;;13.10;46.20;;;;;;5129079;27;46841;-17
2021/12/24 08:24:37;;;;;;;1.53;1.40;;;13.10;45.70;;;;;;5128748;27;46811;-18
2021/12/24 08:27:05;;;;;;;2.27;1.23;;;13.10;46.40;;;;;;5128921;27;48254;-16
2021/12/24 08:29:32;;;;;;;1.83;1.00;;;13.10;45.70;;;;;;5128316;27;46913;-17
2021/12/24 08:31:59;;;;;;;1.07;0.97;;;13.20;45.40;;;;;;5126288;27;47029;-17
2021/12/24 08:34:26;;;;;;;1.30;1.07;;;13.10;45.40;;;;;;5128509;27;47271;-16
2021/12/24 08:36:53;;;;;;;1.53;1.20;;;13.20;45.40;;;;;;5128181;27;48736;-17
2021/12/24 08:39:21;;;;;;;1.93;1.17;;;13.10;45.10;;;;;;5128364;27;46799;-17
2021/12/24 08:41:52;;;;;;;2.97;1.33;;;13.10;45.20;;;;;;5128470;27;46989;-17
2021/12/24 08:44:20;;;;;;;2.80;1.10;;;13.10;45.10;;;;;;5128283;27;47070;-17
2021/12/24 08:46:47;;;;;;;1.20;1.20;;;13.10;45.20;;;;;;5128503;27;48111;-16
2021/12/24 08:49:18;;;;;;;1.33;1.20;;;13.10;45.10;;;;;;5127821;27;47054;-16
2021/12/24 08:51:45;;;;;;;1.97;1.30;;;13.10;45.20;;;;;;5128576;27;46947;-16
2021/12/24 08:54:11;;;;;;;3.00;1.07;;;13.10;45.80;;;;;;5128148;27;47013;-17
2021/12/24 08:56:38;;;;;;;6.40;1.60;;;13.10;45.10;;;;;;5126607;27;48843;-16
2021/12/24 08:59:05;;;;;;;2.97;1.30;;;13.00;45.40;;;;;;5126508;27;46946;-17
2021/12/24 09:01:33;;;;;;;1.80;1.47;;;13.10;45.60;;;;;;5126582;27;47115;-16
2021/12/24 09:04:00;;;;;;;5.50;1.40;;;13.00;45.50;;;;;;5126577;27;47305;-16
2021/12/24 09:06:27;;;;;;;1.43;1.33;;;13.00;45.40;;;;;;5126247;27;49072;-16
2021/12/24 09:08:53;;;;;;;4.47;1.27;;;13.00;45.40;;;;;;5126295;27;46884;-16
2021/12/24 09:11:20;;;;;;;1.40;1.30;;;13.00;45.30;;;;;;5127872;27;47063;-17
2021/12/24 09:13:47;;;;;;;2.37;1.53;;;13.00;45.40;;;;;;5128327;27;46966;-16
2021/12/24 09:16:14;;;;;;;1.47;1.37;;;13.00;45.50;;;;;;5125953;27;48281;-16
2021/12/24 09:18:44;;;;;;;1.40;1.30;;;12.90;45.20;;;;;;5127063;27;47003;-17
2021/12/24 09:21:15;;;;;;;2.20;1.50;;;12.90;45.30;;;;;;5127284;27;46887;-17
2021/12/24 09:23:46;;;;;;;1.83;1.20;;;12.90;45.40;;;;;;5127082;27;47280;-17
2021/12/24 09:26:13;;;;;;;5.47;1.50;;;12.90;45.40;;;;;;5127335;27;47129;-17
2021/12/24 09:28:40;;;;;;;4.53;1.40;;;12.90;45.50;;;;;;5126786;27;47028;-17
2021/12/24 09:31:07;;;;;;;2.47;1.63;;;12.90;45.70;;;;;;5127645;27;46948;-17
2021/12/24 09:33:34;;;;;;;1.40;1.30;;;12.90;45.90;;;;;;5127806;27;46921;-17
2021/12/24 09:36:02;;;;;;;2.30;1.60;;;12.90;45.70;;;;;;5127368;27;48137;-17
2021/12/24 09:38:29;;;;;;;1.37;1.20;;;12.90;45.90;;;;;;5127373;27;46822;-17
2021/12/24 09:40:56;;;;;;;2.80;1.27;;;12.90;46.10;;;;;;5127803;27;46886;-17
2021/12/24 09:43:25;;;;;;;1.30;1.20;;;12.90;46.10;;;;;;5127526;27;47315;-17
2021/12/24 09:45:51;;;;;;;5.17;1.40;;;12.80;46.10;;;;;;5127195;27;48457;-17
2021/12/24 09:48:18;;;;;;;2.43;1.13;;;12.90;46.00;;;;;;5126897;27;47040;-17
2021/12/24 09:50:46;;;;;;;1.23;1.13;;;12.90;46.00;;;;;;5127122;27;47066;-16
2021/12/24 09:53:14;;;;;;;2.63;1.20;;;12.80;45.90;;;;;;5127363;27;47295;-16
2021/12/24 09:55:41;;;;;;;1.70;1.07;;;12.80;46.00;;;;;;5126282;27;47970;-17
2021/12/24 09:58:08;;;;;;;2.10;1.07;;;12.80;46.00;;;;;;5126449;27;46925;-17
2021/12/24 10:00:35;;;;;;;3.90;1.20;;;12.80;45.80;;;;;;5126313;27;46907;-16
2021/12/24 10:03:01;;;;;;;2.13;1.23;;;12.80;45.90;;;;;;5127528;27;46908;-17
2021/12/24 10:05:34;;;;;;;3.03;0.90;;;12.80;45.90;;;;;;5126820;27;48763;-17
2021/12/24 10:08:06;;;;;;;1.47;1.33;;;12.80;45.90;;;;;;5127121;27;46814;-16
2021/12/24 10:10:35;;;;;;;1.10;1.10;;;12.80;46.00;;;;;;5126723;27;47135;-17
2021/12/24 10:13:27;;;;;;;2.30;1.20;;;12.80;46.00;;;;;;5127476;27;47072;-17
2021/12/24 10:15:54;;;;;;;1.20;1.10;;;12.80;46.20;;;;;;5127104;27;47841;-17
2021/12/24 10:18:28;;;;;;;1.33;1.10;;;12.80;46.10;;;;;;5126090;27;46829;-16
2021/12/24 10:21:00;;;;;;;1.20;1.10;;;12.80;46.10;;;;;;5126560;27;47051;-17
2021/12/24 10:23:52;;;;;;;0.90;0.90;;;12.80;46.60;;;;;;5127036;27;46988;-17
2021/12/24 10:26:25;;;;;;;1.17;1.00;;;12.70;46.20;;;;;;5125938;27;47836;-17
2021/12/24 10:28:57;;;;;;;1.33;1.23;;;12.80;46.20;;;;;;5126689;27;47154;-17
2021/12/24 10:31:25;;;;;;;2.63;1.30;;;12.80;46.20;;;;;;5126536;27;46895;-17
2021/12/24 10:34:08;;;;;;;1.30;1.20;;;12.70;46.20;;;;;;5127111;27;47264;-17
2021/12/24 10:36:36;;;;;;;1.37;1.17;;;12.70;46.20;;;;;;5126762;27;48932;-17
2021/12/24 10:39:03;;;;;;;1.37;1.27;;;12.70;46.20;;;;;;5125431;27;47109;-17
2021/12/24 10:41:31;;;;;;;1.27;1.10;;;12.80;46.20;;;;;;5126762;27;46944;-16
2021/12/24 10:43:57;;;;;;;1.73;1.30;;;12.70;46.10;;;;;;5126710;27;46909;-18
2021/12/24 10:46:24;;;;;;;4.23;1.20;;;12.80;46.20;;;;;;5125225;27;48931;-17
2021/12/24 10:49:02;;;;;;;1.10;1.00;;;12.70;46.20;;;;;;5126374;27;46919;-17
2021/12/24 10:51:53;;;;;;;2.10;1.00;;;12.70;46.20;;;;;;5127026;27;46861;-17
2021/12/24 10:54:19;;;;;;;1.40;1.30;;;12.70;46.20;;;;;;5126317;27;47148;-16
2021/12/24 10:56:48;;;;;;;0.90;0.90;;;12.70;46.20;;;;;;5126402;27;46944;-17
2021/12/24 10:59:14;;;;;;;2.17;1.10;;;12.70;46.00;;;;;;5126603;27;47187;-17
2021/12/24 11:01:41;;;;;;;1.07;1.00;;;12.70;46.20;;;;;;5126692;27;46902;-16
2021/12/24 11:04:08;;;;;;;1.27;1.10;;;12.70;46.20;;;;;;5126629;27;47109;-17
2021/12/24 11:06:34;;;;;;;1.63;1.00;;;12.70;46.20;;;;;;5126393;27;48799;-16
2021/12/24 11:09:01;;;;;;;1.23;1.13;;;12.70;46.20;;;;;;5126561;27;46869;-17
2021/12/24 11:11:35;;;;;;;1.17;1.10;;;12.80;46.30;;;;;;5126606;27;46787;-16
2021/12/24 11:14:03;;;;;;;1.27;1.17;;;12.70;46.20;;;;;;5126451;27;47141;-17
2021/12/24 11:16:30;;;;;;;1.20;1.10;;;12.70;46.30;;;;;;5126459;27;47949;-16
2021/12/24 11:18:58;;;;;;;1.87;1.17;;;12.70;46.30;;;;;;5126005;27;46996;-17
2021/12/24 11:21:25;;;;;;;1.10;1.00;;;12.70;46.30;;;;;;5126450;27;46906;-17
2021/12/24 11:23:52;;;;;;;0.90;0.90;;;12.70;46.20;;;;;;5126404;27;47298;-16
2021/12/24 11:26:19;;;;;;;1.73;1.10;;;12.70;46.30;;;;;;5125933;27;46839;-17
2021/12/24 11:28:46;;;;;;;2.00;1.13;;;12.70;46.40;;;;;;5126176;27;46903;-17
2021/12/24 11:31:15;;;;;;;1.70;1.10;;;12.70;46.40;;;;;;5125939;27;46905;-17
2021/12/24 11:33:44;;;;;;;1.10;1.00;;;12.70;46.20;;;;;;5126165;27;46924;-16
2021/12/24 11:36:13;;;;;;;1.23;1.13;;;12.70;46.20;;;;;;5126067;27;47101;-17
2021/12/24 11:38:41;;;;;;;1.10;1.00;;;12.70;46.20;;;;;;5126695;27;46917;-17
2021/12/24 11:41:10;;;;;;;2.60;1.00;;;12.70;46.20;;;;;;5129782;27;46785;-18
2021/12/24 11:43:38;;;;;;;1.77;1.10;;;12.70;46.20;;;;;;5129682;27;46937;-16
2021/12/24 11:46:06;;;;;;;1.20;1.10;;;12.70;46.20;;;;;;5129544;27;47958;-17
2021/12/24 11:48:35;;;;;;;2.03;1.00;;;12.70;46.20;;;;;;5129239;27;46887;-16
2021/12/24 11:51:02;;;;;;;1.47;1.17;;;12.70;46.20;;;;;;5129562;27;46861;-17
2021/12/24 11:53:30;;;;;;;1.00;1.00;;;12.70;46.30;;;;;;5129492;27;46925;-17
2021/12/24 11:56:01;;;;;;;0.90;0.90;;;12.70;46.30;;;;;;5129470;27;48105;-18
2021/12/24 11:58:28;;;;;;;0.97;0.90;;;12.70;46.60;;;;;;5129469;27;47256;-17
2021/12/24 12:00:56;;;;;;;0.77;0.77;;;12.70;46.40;;;;;;5129192;27;46946;-17
2021/12/24 12:03:35;;;;;;;1.20;1.00;;;12.70;46.40;;;;;;5129624;27;47193;-16
2021/12/24 12:06:01;;;;;;;1.67;1.10;;;12.70;46.20;;;;;;5128873;27;47880;-17
2021/12/24 12:08:39;;;;;;;1.30;1.20;;;12.70;46.30;;;;;;5129165;27;47148;-18
2021/12/24 12:11:18;;;;;;;1.00;1.00;;;12.70;46.30;;;;;;5129651;27;46874;-17
2021/12/24 12:13:47;;;;;;;0.97;0.97;;;12.70;46.40;;;;;;5128943;27;47021;-17
2021/12/24 12:16:15;;;;;;;1.10;1.00;;;12.70;46.30;;;;;;5127834;27;48062;-16
2021/12/24 12:21:35;;;;;;;0.83;0.83;;;12.70;46.30;;;;;;5126865;27;46949;-18
2021/12/24 12:26:51;;;;;;;1.10;1.00;;;12.70;46.30;;;;;;5126628;27;46949;-17
2021/12/24 12:29:24;;;;;;;1.40;1.00;;;12.70;46.30;;;;;;5127055;27;47135;-17
2021/12/24 12:31:53;;;;;;;1.87;0.97;;;12.70;46.30;;;;;;5126836;27;46966;-17
2021/12/24 12:34:52;;;;;;;1.00;1.00;;;12.70;46.40;;;;;;5128298;27;46836;-17
2021/12/24 12:37:20;;;;;;;1.10;1.00;;;12.70;46.40;;;;;;5128413;27;48756;-17
2021/12/24 12:39:48;;;;;;;1.47;1.00;;;12.70;46.40;;;;;;5128305;27;47061;-17
2021/12/24 12:42:17;;;;;;;1.00;0.97;;;12.70;46.40;;;;;;5128030;27;46810;-17
2021/12/24 12:44:45;;;;;;;0.90;0.90;;;12.70;46.00;;;;;;5127795;27;46915;-17
2021/12/24 12:47:13;;;;;;;0.90;0.90;;;12.70;46.50;;;;;;5126930;27;47826;-16
2021/12/24 12:49:40;;;;;;;0.83;0.83;;;12.70;46.40;;;;;;5126807;27;46919;-17
2021/12/24 12:52:12;;;;;;;1.50;0.83;;;12.70;46.60;;;;;;5127214;27;46856;-18
2021/12/24 12:54:41;;;;;;;1.40;0.80;;;12.70;46.50;;;;;;5127124;27;47164;-16
2021/12/24 12:57:13;;;;;;;1.13;1.03;;;12.70;46.50;;;;;;5126875;27;47240;-16
2021/12/24 12:59:40;;;;;;;0.70;0.70;;;12.70;46.40;;;;;;5127183;27;47193;-16
2021/12/24 13:02:07;;;;;;;1.10;1.00;;;12.70;46.50;;;;;;5128174;27;46746;-17
2021/12/24 13:04:34;;;;;;;1.20;1.10;;;12.70;46.40;;;;;;5128161;27;47343;-17
2021/12/24 13:07:01;;;;;;;1.10;1.03;;;12.70;46.40;;;;;;5128160;27;47931;-17
2021/12/24 13:09:33;;;;;;;1.13;1.03;;;12.70;46.50;;;;;;5128119;27;47049;-16
2021/12/24 13:12:00;;;;;;;1.23;0.60;;;12.70;46.40;;;;;;5128167;27;46947;-17
2021/12/24 13:14:30;;;;;;;0.80;0.80;;;12.70;46.40;;;;;;5128158;27;47015;-17
2021/12/24 13:20:09;;;;;;;0.83;0.83;;;12.70;46.40;;;;;;5116211;27;46875;-18
2021/12/24 13:22:37;;;;;;;0.80;0.80;;;12.70;46.40;;;;;;5128180;27;47117;-17
2021/12/24 13:25:10;;;;;;;0.87;0.87;;;12.70;46.40;;;;;;5127911;27;46957;-16
2021/12/24 13:27:39;;;;;;;0.90;0.90;;;12.70;46.50;;;;;;5127931;27;49055;-18
2021/12/24 13:30:11;;;;;;;0.80;0.80;;;12.70;46.50;;;;;;5127889;27;46935;-16
2021/12/24 13:32:40;;;;;;;0.90;0.90;;;12.70;46.40;;;;;;5128025;27;46812;-17
2021/12/24 13:35:07;;;;;;;1.00;0.90;;;12.70;46.50;;;;;;5127782;27;46896;-17
2021/12/24 13:37:34;;;;;;;0.80;0.80;;;12.70;46.40;;;;;;5127002;27;49034;-18
2021/12/24 13:40:00;;;;;;;0.80;0.80;;;12.70;46.50;;;;;;5125947;27;47130;-17
2021/12/24 13:42:29;;;;;;;0.90;0.90;;;12.70;46.50;;;;;;5126210;27;47015;-16
2021/12/24 13:44:59;;;;;;;0.80;0.80;;;12.70;46.40;;;;;;5125590;27;47167;-17
2021/12/24 13:47:30;;;;;;;0.80;0.80;;;12.70;46.50;;;;;;5125551;27;47853;-18
2021/12/24 13:55:30;;;;;;;1.07;0.80;;;12.70;46.50;;;;;;5127312;27;46837;-17
2021/12/24 13:57:59;;;;;;;2.53;0.90;;;12.70;46.80;;;;;;5123770;27;48067;-17
2021/12/24 14:00:26;;;;;;;1.70;0.87;;;12.70;48.20;;;;;;5115646;27;47263;-17
2021/12/24 14:02:54;;;;;;;2.30;0.90;;;12.70;48.90;;;;;;5110771;27;46923;-18
2021/12/24 14:05:20;;;;;;;3.23;1.10;;;12.80;48.30;;;;;;5127000;27;47116;-18
2021/12/24 14:07:47;;;;;;;0.83;0.77;;;12.90;48.60;;;;;;5126833;27;48801;-18
2021/12/24 14:10:21;;;;;;;5.83;1.10;;;12.90;47.80;;;;;;5126475;27;46722;-17
2021/12/24 14:12:48;;;;;;;4.00;1.27;;;13.00;47.80;;;;;;5126972;27;46738;-17
2021/12/24 14:15:22;;;;;;;4.70;1.10;;;13.00;48.90;;;;;;5126928;27;46843;-17
2021/12/24 14:18:05;;;;;;;4.00;1.20;;;13.10;48.50;;;;;;5137607;27;47401;-17
2021/12/24 14:20:58;;;;;;;6.20;1.00;;;13.10;48.40;;;;;;5147441;27;46922;-17
2021/12/24 14:23:20;;;;;;;2.00;1.17;;;13.10;47.60;;;;;;5147714;27;46860;-17
2021/12/24 14:25:54;;;;;;;2.97;0.97;;;13.10;47.40;;;;;;5147524;27;46930;-17